Time,TemperatureF,DewpointF,PressureIn,WindDirection,WindDirectionDegrees,WindSpeedMPH,WindSpeedGustMPH,Humidity,HourlyPrecipIn,Conditions,Clouds,dailyrainin,SoftwareType,DateUTC
2013-07-20 00:22:00,60.0,56.0,29.87,West,272,2.0,2.0,86,0.00,,,0.00,,2013-07-20 07:22:00,
2013-07-20 00:33:00,60.0,56.0,29.87,West,272,2.0,2.0,86,0.00,,,0.00,,2013-07-20 07:33:00,
2013-07-20 00:44:00,60.0,56.0,29.87,West,272,2.0,2.0,86,0.00,,,0.00,,2013-07-20 07:44:00,
2013-07-20 00:54:00,60.0,56.0,29.87,West,272,2.0,2.0,86,0.00,,,0.00,,2013-07-20 07:54:00,
2013-07-20 01:01:00,60.0,56.0,29.87,West,272,2.0,2.0,86,0.00,,,0.00,,2013-07-20 08:01:00,
2013-07-20 01:11:00,60.0,56.0,29.87,West,272,2.0,2.0,86,0.00,,,0.00,,2013-07-20 08:11:00,
2013-07-20 01:32:00,59.0,55.0,29.87,West,272,0.0,0.0,87,0.00,,,0.00,,2013-07-20 08:32:00,
2013-07-20 01:44:00,59.0,55.0,29.87,West,272,0.0,0.0,87,0.00,,,0.00,,2013-07-20 08:44:00,
2013-07-20 01:52:00,59.0,55.0,29.87,West,272,0.0,0.0,87,0.00,,,0.00,,2013-07-20 08:52:00,
2013-07-20 02:01:00,59.0,55.0,29.87,West,272,0.0,0.0,87,0.00,,,0.00,,2013-07-20 09:01:00,
2013-07-20 02:11:00,59.0,55.0,29.87,West,272,0.0,0.0,87,0.00,,,0.00,,2013-07-20 09:11:00,
2013-07-20 02:22:00,59.0,55.0,29.87,West,272,0.0,0.0,87,0.00,,,0.00,,2013-07-20 09:22:00,
2013-07-20 02:33:00,59.0,55.0,29.87,West,272,0.0,0.0,87,0.00,,,0.00,,2013-07-20 09:33:00,
2013-07-20 02:53:00,59.0,55.0,29.86,West,271,0.0,0.0,87,0.00,,,0.00,,2013-07-20 09:53:00,
2013-07-20 03:01:00,59.0,55.0,29.86,West,271,0.0,0.0,87,0.00,,,0.00,,2013-07-20 10:01:00,
2013-07-20 03:11:00,59.0,55.0,29.86,West,271,0.0,0.0,87,0.00,,,0.00,,2013-07-20 10:11:00,
2013-07-20 03:21:00,59.0,55.0,29.86,West,272,0.0,0.0,88,0.00,,,0.00,,2013-07-20 10:21:00,
2013-07-20 03:32:00,59.0,55.0,29.86,West,272,0.0,0.0,88,0.00,,,0.00,,2013-07-20 10:32:00,
2013-07-20 03:42:00,59.0,55.0,29.86,West,272,0.0,0.0,88,0.00,,,0.00,,2013-07-20 10:42:00,
2013-07-20 03:52:00,59.0,55.0,29.85,West,272,2.0,2.0,88,0.00,,,0.00,,2013-07-20 10:52:00,
2013-07-20 04:01:00,59.0,55.0,29.85,West,272,2.0,2.0,88,0.00,,,0.00,,2013-07-20 11:01:00,
2013-07-20 04:11:00,59.0,55.0,29.85,West,272,2.0,2.0,88,0.00,,,0.00,,2013-07-20 11:11:00,
2013-07-20 04:21:00,59.0,55.0,29.85,West,272,2.0,2.0,88,0.00,,,0.00,,2013-07-20 11:21:00,
2013-07-20 04:32:00,59.0,55.0,29.85,West,272,2.0,2.0,88,0.00,,,0.00,,2013-07-20 11:32:00,
2013-07-20 04:52:00,58.0,54.0,29.85,West,273,0.0,0.0,87,0.00,,,0.00,,2013-07-20 11:52:00,
2013-07-20 05:01:00,58.0,54.0,29.85,West,273,0.0,0.0,87,0.00,,,0.00,,2013-07-20 12:01:00,
2013-07-20 05:11:00,58.0,54.0,29.85,West,273,0.0,0.0,87,0.00,,,0.00,,2013-07-20 12:11:00,
2013-07-20 05:22:00,58.0,54.0,29.85,West,273,0.0,0.0,87,0.00,,,0.00,,2013-07-20 12:22:00,
2013-07-20 05:32:00,58.0,54.0,29.85,West,273,0.0,0.0,87,0.00,,,0.00,,2013-07-20 12:32:00,
2013-07-20 05:52:00,58.0,54.0,29.85,NW,306,0.0,0.0,87,0.00,,,0.00,,2013-07-20 12:52:00,
2013-07-20 06:01:00,58.0,54.0,29.85,NW,306,0.0,0.0,87,0.00,,,0.00,,2013-07-20 13:01:00,
2013-07-20 06:11:00,58.0,54.0,29.85,NW,306,0.0,0.0,87,0.00,,,0.00,,2013-07-20 13:11:00,
2013-07-20 06:22:00,58.0,54.0,29.85,NW,306,0.0,0.0,87,0.00,,,0.00,,2013-07-20 13:22:00,
2013-07-20 07:22:00,59.0,55.0,29.85,NW,306,0.0,0.0,87,0.00,,,0.00,,2013-07-20 14:22:00,
2013-07-20 07:32:00,59.0,55.0,29.85,NW,306,0.0,0.0,87,0.00,,,0.00,,2013-07-20 14:32:00,
2013-07-20 07:43:00,59.0,55.0,29.85,NW,306,0.0,0.0,87,0.00,,,0.00,,2013-07-20 14:43:00,
2013-07-20 07:53:00,60.0,56.0,29.87,NNE,27,0.0,0.0,86,0.00,,,0.00,,2013-07-20 14:53:00,
2013-07-20 08:01:00,60.0,56.0,29.87,NNE,27,0.0,0.0,86,0.00,,,0.00,,2013-07-20 15:01:00,
2013-07-20 08:11:00,60.0,56.0,29.87,NNE,27,0.0,0.0,86,0.00,,,0.00,,2013-07-20 15:11:00,
2013-07-20 08:22:00,62.0,58.0,29.88,NNE,28,0.0,0.0,86,0.00,,,0.00,,2013-07-20 15:22:00,
2013-07-20 08:33:00,62.0,58.0,29.88,NNE,28,0.0,0.0,86,0.00,,,0.00,,2013-07-20 15:33:00,
2013-07-20 08:44:00,62.0,58.0,29.88,NNE,28,0.0,0.0,86,0.00,,,0.00,,2013-07-20 15:44:00,
2013-07-20 08:53:00,62.0,58.0,29.88,NNE,28,0.0,0.0,86,0.00,,,0.00,,2013-07-20 15:53:00,
2013-07-20 09:01:00,62.0,58.0,29.88,NNE,28,0.0,0.0,86,0.00,,,0.00,,2013-07-20 16:01:00,
2013-07-20 09:22:00,67.0,59.0,29.88,NE,44,2.0,2.0,76,0.00,,,0.00,,2013-07-20 16:22:00,
2013-07-20 09:32:00,67.0,59.0,29.88,NE,44,2.0,2.0,76,0.00,,,0.00,,2013-07-20 16:32:00,
2013-07-20 09:43:00,67.0,59.0,29.88,NE,44,2.0,2.0,76,0.00,,,0.00,,2013-07-20 16:43:00,
2013-07-20 09:52:00,69.0,58.0,29.88,SW,232,3.0,3.0,69,0.00,,,0.00,,2013-07-20 16:52:00,
2013-07-20 10:02:00,69.0,58.0,29.88,SW,232,3.0,3.0,69,0.00,,,0.00,,2013-07-20 17:02:00,
2013-07-20 10:11:00,69.0,58.0,29.88,SW,232,3.0,3.0,69,0.00,,,0.00,,2013-07-20 17:11:00,
2013-07-20 10:22:00,69.0,58.0,29.88,SW,232,3.0,3.0,69,0.00,,,0.00,,2013-07-20 17:22:00,
2013-07-20 10:32:00,69.0,58.0,29.88,SW,232,3.0,3.0,69,0.00,,,0.00,,2013-07-20 17:32:00,
2013-07-20 11:25:00,70.0,61.0,29.88,SSW,207,4.0,4.0,72,0.00,,,0.00,,2013-07-20 18:25:00,
2013-07-20 11:36:00,70.0,61.0,29.88,SSW,207,4.0,4.0,72,0.00,,,0.00,,2013-07-20 18:36:00,
2013-07-20 11:47:00,70.0,61.0,29.88,SSW,207,4.0,4.0,72,0.00,,,0.00,,2013-07-20 18:47:00,
2013-07-20 11:56:00,70.0,61.0,29.88,SSW,207,4.0,4.0,72,0.00,,,0.00,,2013-07-20 18:56:00,
2013-07-20 12:56:00,73.0,61.0,29.86,SW,218,3.0,3.0,66,0.00,,,0.00,,2013-07-20 19:56:00,
2013-07-20 13:04:00,73.0,61.0,29.86,SW,218,3.0,3.0,66,0.00,,,0.00,,2013-07-20 20:04:00,
2013-07-20 13:13:00,73.0,61.0,29.86,SW,218,3.0,3.0,66,0.00,,,0.00,,2013-07-20 20:13:00,
2013-07-20 13:22:00,73.0,61.0,29.86,SW,218,3.0,3.0,66,0.00,,,0.00,,2013-07-20 20:22:00,
2013-07-20 13:32:00,73.0,61.0,29.86,SW,218,3.0,3.0,66,0.00,,,0.00,,2013-07-20 20:32:00,
2013-07-20 13:56:00,73.0,61.0,29.85,SW,234,4.0,4.0,66,0.00,,,0.00,,2013-07-20 20:56:00,
2013-07-20 14:02:00,73.0,61.0,29.85,SW,234,4.0,4.0,66,0.00,,,0.00,,2013-07-20 21:02:00,
2013-07-20 14:12:00,73.0,61.0,29.85,SW,234,4.0,4.0,66,0.00,,,0.00,,2013-07-20 21:12:00,
2013-07-20 14:23:00,73.0,61.0,29.85,SW,234,4.0,4.0,66,0.00,,,0.00,,2013-07-20 21:23:00,
2013-07-20 14:32:00,73.0,61.0,29.85,SW,234,4.0,4.0,66,0.00,,,0.00,,2013-07-20 21:32:00,
2013-07-20 15:27:00,73.0,61.0,29.85,South,190,11.0,11.0,66,0.00,,,0.00,,2013-07-20 22:27:00,
2013-07-20 15:48:00,73.0,61.0,29.85,South,190,11.0,11.0,66,0.00,,,0.00,,2013-07-20 22:48:00,
2013-07-20 15:55:00,72.0,61.0,29.85,SW,225,3.0,3.0,68,0.00,,,0.00,,2013-07-20 22:55:00,
2013-07-20 16:14:00,72.0,61.0,29.85,SW,225,3.0,3.0,68,0.00,,,0.00,,2013-07-20 23:14:00,
2013-07-20 16:23:00,73.0,61.0,29.84,WSW,241,6.0,6.0,67,0.00,,,0.00,,2013-07-20 23:23:00,
2013-07-20 16:45:00,73.0,61.0,29.84,WSW,241,6.0,6.0,67,0.00,,,0.00,,2013-07-20 23:45:00,
2013-07-20 16:56:00,71.0,60.0,29.83,SW,233,7.0,7.0,69,0.00,,,0.00,,2013-07-20 23:56:00,
2013-07-20 17:02:00,71.0,60.0,29.83,SW,233,7.0,7.0,69,0.00,,,0.00,,2013-07-21 00:02:00,
2013-07-20 17:13:00,71.0,60.0,29.83,SW,233,7.0,7.0,69,0.00,,,0.00,,2013-07-21 00:13:00,
2013-07-20 17:22:00,71.0,60.0,29.83,SW,233,7.0,7.0,69,0.00,,,0.00,,2013-07-21 00:22:00,
2013-07-20 17:56:00,71.0,61.0,29.80,WNW,294,7.0,7.0,70,0.00,,,0.00,,2013-07-21 00:56:00,
2013-07-20 18:04:00,71.0,61.0,29.80,WNW,294,7.0,7.0,70,0.00,,,0.00,,2013-07-21 01:04:00,
2013-07-20 18:11:00,71.0,61.0,29.80,WNW,294,7.0,7.0,70,0.00,,,0.00,,2013-07-21 01:11:00,
2013-07-20 18:22:00,69.0,59.0,29.78,West,263,8.0,8.0,71,0.00,,,0.00,,2013-07-21 01:22:00,
2013-07-20 18:32:00,69.0,59.0,29.78,West,263,8.0,8.0,71,0.00,,,0.00,,2013-07-21 01:32:00,
2013-07-20 18:48:00,-999.0,-99.9,29.78,West,263,8.0,8.0,-999,-99.99,,,-99.99,,2013-07-21 01:48:00,
2013-07-20 19:01:00,69.0,59.0,29.78,West,263,8.0,8.0,71,0.00,,,0.00,,2013-07-21 02:01:00,
2013-07-20 19:57:00,66.0,59.0,29.81,WSW,252,6.0,6.0,77,0.00,,,0.00,,2013-07-21 02:57:00,
2013-07-20 20:02:00,66.0,59.0,29.81,WSW,252,6.0,6.0,77,0.00,,,0.00,,2013-07-21 03:02:00,
2013-07-20 20:13:00,66.0,59.0,29.81,WSW,252,6.0,6.0,77,0.00,,,0.00,,2013-07-21 03:13:00,
2013-07-20 20:22:00,65.0,58.0,29.83,WSW,246,4.0,4.0,79,0.00,,,0.00,,2013-07-21 03:22:00,
2013-07-20 20:32:00,65.0,58.0,29.83,WSW,246,4.0,4.0,79,0.00,,,0.00,,2013-07-21 03:32:00,
2013-07-20 20:46:00,65.0,58.0,29.83,WSW,246,4.0,4.0,79,0.00,,,0.00,,2013-07-21 03:46:00,
2013-07-20 20:57:00,64.0,58.0,29.83,NW,309,1.0,1.0,81,0.00,,,0.00,,2013-07-21 03:57:00,
2013-07-20 21:01:00,64.0,58.0,29.83,NW,309,1.0,1.0,81,0.00,,,0.00,,2013-07-21 04:01:00,
2013-07-20 21:11:00,64.0,58.0,29.83,NW,309,1.0,1.0,81,0.00,,,0.00,,2013-07-21 04:11:00,
2013-07-20 21:22:00,63.0,58.0,29.84,NW,304,4.0,4.0,83,0.00,,,0.00,,2013-07-21 04:22:00,
2013-07-20 21:32:00,63.0,58.0,29.84,NW,304,4.0,4.0,83,0.00,,,0.00,,2013-07-21 04:32:00,
2013-07-20 21:43:00,63.0,58.0,29.84,NW,304,4.0,4.0,83,0.00,,,0.00,,2013-07-21 04:43:00,
2013-07-20 21:53:00,63.0,58.0,29.84,NW,304,4.0,4.0,83,0.00,,,0.00,,2013-07-21 04:53:00,
2013-07-20 22:01:00,63.0,58.0,29.84,NW,304,4.0,4.0,83,0.00,,,0.00,,2013-07-21 05:01:00,
2013-07-20 22:22:00,63.0,58.0,29.85,NW,304,0.0,0.0,84,0.00,,,0.00,,2013-07-21 05:22:00,
2013-07-20 22:32:00,63.0,58.0,29.85,NW,304,0.0,0.0,84,0.00,,,0.00,,2013-07-21 05:32:00,
2013-07-20 22:42:00,63.0,58.0,29.85,NW,304,0.0,0.0,84,0.00,,,0.00,,2013-07-21 05:42:00,
2013-07-20 22:52:00,62.0,57.0,29.84,NW,304,0.0,0.0,84,0.00,,,0.00,,2013-07-21 05:52:00,
2013-07-20 23:01:00,62.0,57.0,29.84,NW,304,0.0,0.0,84,0.00,,,0.00,,2013-07-21 06:01:00,
2013-07-20 23:11:00,62.0,57.0,29.84,NW,304,0.0,0.0,84,0.00,,,0.00,,2013-07-21 06:11:00,
2013-07-20 23:22:00,63.0,58.0,29.83,NW,304,0.0,0.0,84,0.00,,,0.00,,2013-07-21 06:22:00,
2013-07-20 23:32:00,63.0,58.0,29.83,NW,304,0.0,0.0,84,0.00,,,0.00,,2013-07-21 06:32:00,
2013-07-20 23:43:00,63.0,58.0,29.83,NW,304,0.0,0.0,84,0.00,,,0.00,,2013-07-21 06:43:00,
2013-07-20 23:52:00,63.0,58.0,29.84,NW,304,2.0,2.0,84,0.00,,,0.00,,2013-07-21 06:52:00,